Time;durP1;ratioP1;P1;durP2;ratioP2;P2;SDS_P1;SDS_P2;PMS_P1;PMS_P2;Temp;Humidity;BMP_temperature;BMP_pressure;BME280_temperature;BME280_humidity;BME280_pressure;Samples;Min_cycle;Max_cycle;Signal;HPM_P1;HPM_P2
2021/07/18 00:00:36;;;;;;;34.97;23.35;;;18.90;99.90;;;;;;5011579;28;20022;-69
2021/07/18 00:03:02;;;;;;;39.97;23.75;;;18.80;99.90;;;;;;5011774;28;20026;-69
2021/07/18 00:05:27;;;;;;;34.70;25.33;;;18.80;99.90;;;;;;5010916;28;20030;-68
2021/07/18 00:07:53;;;;;;;29.15;24.02;;;18.80;99.90;;;;;;5012023;28;20058;-69
2021/07/18 00:10:19;;;;;;;30.27;23.63;;;18.70;99.90;;;;;;5011933;28;20544;-69
2021/07/18 00:12:45;;;;;;;34.40;23.85;;;18.60;99.90;;;;;;5011832;28;20029;-68
2021/07/18 00:15:13;;;;;;;37.40;24.48;;;18.50;99.90;;;;;;5011037;28;20117;-69
2021/07/18 00:17:39;;;;;;;31.75;24.00;;;18.50;99.90;;;;;;5011479;28;20034;-69
2021/07/18 00:20:11;;;;;;;30.15;22.35;;;18.60;99.90;;;;;;5011755;28;20030;-69
2021/07/18 00:22:37;;;;;;;32.97;22.60;;;18.50;99.90;;;;;;5011761;28;20022;-69
2021/07/18 00:25:05;;;;;;;34.35;24.33;;;18.40;99.90;;;;;;5011191;28;20026;-69
2021/07/18 00:27:31;;;;;;;31.90;22.90;;;18.30;99.90;;;;;;5011831;28;20550;-69
2021/07/18 00:29:57;;;;;;;39.08;25.30;;;18.30;99.90;;;;;;5011606;28;20114;-69
2021/07/18 00:32:22;;;;;;;31.48;23.63;;;18.30;99.90;;;;;;5010630;28;20026;-69
2021/07/18 00:34:48;;;;;;;39.67;25.77;;;18.30;99.90;;;;;;5011328;28;20036;-68
2021/07/18 00:37:14;;;;;;;40.08;25.17;;;18.20;99.90;;;;;;5011588;28;20026;-69
2021/07/18 00:39:39;;;;;;;32.58;24.48;;;18.10;99.90;;;;;;5011515;28;20036;-68
2021/07/18 00:42:05;;;;;;;36.33;23.67;;;18.20;99.90;;;;;;5011301;28;20053;-69
2021/07/18 00:44:31;;;;;;;34.42;24.17;;;18.10;99.90;;;;;;5010840;28;20029;-68
2021/07/18 00:46:56;;;;;;;32.80;23.70;;;18.00;99.90;;;;;;5011314;28;20484;-69
2021/07/18 00:49:22;;;;;;;33.08;23.23;;;17.90;99.90;;;;;;5011507;28;20053;-69
2021/07/18 00:51:48;;;;;;;36.45;22.42;;;18.00;99.90;;;;;;5011437;28;20026;-69
2021/07/18 00:54:14;;;;;;;34.75;22.17;;;17.90;99.90;;;;;;5011576;28;20018;-69
2021/07/18 00:56:40;;;;;;;33.47;22.75;;;17.80;99.90;;;;;;5011282;28;20030;-69
2021/07/18 00:59:06;;;;;;;36.58;24.02;;;17.80;99.90;;;;;;5011212;28;20030;-69
2021/07/18 01:01:32;;;;;;;37.65;23.40;;;17.80;99.90;;;;;;5010234;28;20439;-69
2021/07/18 01:03:58;;;;;;;33.53;23.80;;;17.70;99.90;;;;;;5010168;28;20034;-68
2021/07/18 01:06:24;;;;;;;36.55;23.40;;;17.60;99.90;;;;;;5009188;28;20029;-69
2021/07/18 01:08:50;;;;;;;32.47;23.30;;;17.50;99.90;;;;;;5009256;28;20041;-69
2021/07/18 01:11:16;;;;;;;37.00;24.30;;;17.60;99.90;;;;;;5009899;28;20022;-69
2021/07/18 01:13:43;;;;;;;40.05;24.83;;;17.60;99.90;;;;;;5009839;28;20084;-68
2021/07/18 01:16:10;;;;;;;33.45;23.27;;;17.60;99.90;;;;;;5009952;28;20109;-68
2021/07/18 01:18:38;;;;;;;32.80;22.67;;;17.60;99.90;;;;;;5014939;28;20022;-70
2021/07/18 01:21:04;;;;;;;32.90;22.08;;;17.60;99.90;;;;;;5015364;28;20046;-68
2021/07/18 01:23:30;;;;;;;36.58;22.77;;;17.50;99.90;;;;;;5014939;28;20029;-68
2021/07/18 01:25:56;;;;;;;30.30;22.40;;;17.60;99.90;;;;;;5014252;28;20506;-69
2021/07/18 01:28:22;;;;;;;32.55;21.42;;;17.50;99.90;;;;;;5014565;28;20030;-69
2021/07/18 01:30:48;;;;;;;32.83;21.10;;;17.50;99.90;;;;;;5013660;28;20030;-69
2021/07/18 01:33:14;;;;;;;32.58;20.90;;;17.60;99.90;;;;;;5014555;28;20049;-70
2021/07/18 01:35:40;;;;;;;30.30;20.83;;;17.50;99.90;;;;;;5013999;28;20030;-69
2021/07/18 01:38:08;;;;;;;30.33;20.55;;;17.50;99.90;;;;;;5014218;28;20076;-69
2021/07/18 01:40:34;;;;;;;29.52;20.42;;;17.50;99.90;;;;;;5013449;28;20061;-69
2021/07/18 01:42:59;;;;;;;27.42;19.08;;;17.50;99.90;;;;;;5014115;28;20081;-69
2021/07/18 01:45:26;;;;;;;23.10;19.27;;;17.40;99.90;;;;;;5013765;28;20487;-69
2021/07/18 01:47:51;;;;;;;29.13;18.08;;;17.40;99.90;;;;;;5014562;28;20037;-69
2021/07/18 01:50:18;;;;;;;21.63;16.42;;;17.30;99.90;;;;;;5014359;28;20083;-69
2021/07/18 01:52:44;;;;;;;30.50;17.15;;;17.10;99.90;;;;;;5014299;28;20553;-69
2021/07/18 01:55:12;;;;;;;27.98;17.88;;;17.10;99.90;;;;;;5013645;28;20600;-69
2021/07/18 01:57:39;;;;;;;20.90;16.55;;;17.10;99.90;;;;;;5014193;28;20484;-70
2021/07/18 02:00:10;;;;;;;22.10;16.65;;;17.00;99.90;;;;;;5013655;28;20053;-69
2021/07/18 02:02:36;;;;;;;21.77;17.55;;;16.90;99.90;;;;;;5013304;28;20010;-69
2021/07/18 02:05:03;;;;;;;32.03;18.63;;;16.90;99.90;;;;;;5013383;28;20045;-69
2021/07/18 02:07:29;;;;;;;30.27;18.17;;;16.90;99.90;;;;;;5014227;28;20080;-69
2021/07/18 02:09:56;;;;;;;28.83;18.67;;;16.90;99.90;;;;;;5013808;28;20033;-70
2021/07/18 02:12:22;;;;;;;28.80;18.42;;;16.80;99.90;;;;;;5014053;28;20026;-68
2021/07/18 02:14:47;;;;;;;31.08;18.85;;;16.70;99.90;;;;;;4995541;28;20073;-68
2021/07/18 02:17:13;;;;;;;25.20;16.95;;;16.70;99.90;;;;;;4996331;28;20030;-68
2021/07/18 02:19:39;;;;;;;28.75;17.00;;;16.60;99.90;;;;;;5013994;28;20100;-68
2021/07/18 02:22:05;;;;;;;27.20;16.92;;;16.60;99.90;;;;;;5013658;28;20037;-68
2021/07/18 02:24:31;;;;;;;28.90;17.10;;;16.50;99.90;;;;;;5013097;28;20387;-68
2021/07/18 02:26:57;;;;;;;23.38;16.15;;;16.50;99.90;;;;;;5013682;28;20389;-68
2021/07/18 02:29:23;;;;;;;20.50;14.93;;;16.40;99.90;;;;;;5013721;28;20045;-68
2021/07/18 02:31:56;;;;;;;23.90;14.77;;;16.30;99.90;;;;;;5013629;28;20407;-68
2021/07/18 02:34:21;;;;;;;21.92;14.60;;;16.30;99.90;;;;;;4993746;28;20027;-68
2021/07/18 02:36:47;;;;;;;19.65;14.13;;;16.20;99.90;;;;;;4993779;28;20105;-68
2021/07/18 02:39:13;;;;;;;18.90;13.23;;;16.10;99.90;;;;;;4993860;28;20068;-68
2021/07/18 02:41:39;;;;;;;21.20;16.10;;;16.00;99.90;;;;;;4993992;28;20110;-68
2021/07/18 02:44:06;;;;;;;20.88;13.20;;;16.00;99.90;;;;;;4993666;28;20034;-69
2021/07/18 02:46:32;;;;;;;21.20;14.18;;;16.00;99.90;;;;;;5014436;23;20400;-70
2021/07/18 02:48:58;;;;;;;25.65;14.25;;;15.90;99.90;;;;;;4976939;28;20027;-70
2021/07/18 02:51:24;;;;;;;26.15;15.30;;;15.90;99.90;;;;;;4973943;28;20033;-71
2021/07/18 02:53:50;;;;;;;18.92;14.32;;;15.90;99.90;;;;;;4994467;28;20026;-71
2021/07/18 02:56:15;;;;;;;21.23;14.77;;;15.90;99.90;;;;;;4995548;28;20049;-71
2021/07/18 02:58:41;;;;;;;25.27;15.55;;;15.80;99.90;;;;;;4988020;28;20037;-70
2021/07/18 03:01:07;;;;;;;20.20;14.13;;;15.80;99.90;;;;;;4993434;28;20032;-70
2021/07/18 03:03:33;;;;;;;22.20;15.45;;;15.80;99.90;;;;;;4993679;28;20037;-71
2021/07/18 03:05:58;;;;;;;26.80;14.70;;;15.80;99.90;;;;;;4991953;28;20117;-71
2021/07/18 03:08:24;;;;;;;22.98;14.43;;;15.80;99.90;;;;;;4993425;28;20065;-71
2021/07/18 03:10:49;;;;;;;21.13;14.70;;;15.70;99.90;;;;;;4993493;28;20054;-71
2021/07/18 03:13:15;;;;;;;24.05;14.55;;;15.70;99.90;;;;;;4994327;28;20030;-71
2021/07/18 03:15:41;;;;;;;19.08;13.38;;;15.60;99.90;;;;;;4993140;28;20030;-71
2021/07/18 03:18:08;;;;;;;19.70;14.40;;;15.60;99.90;;;;;;5004661;28;20034;-70
2021/07/18 03:20:34;;;;;;;17.67;13.15;;;15.60;99.90;;;;;;4985915;28;20022;-71
2021/07/18 03:22:59;;;;;;;24.38;13.30;;;15.50;99.90;;;;;;5001314;28;20079;-71
2021/07/18 03:25:25;;;;;;;22.63;14.40;;;15.50;99.90;;;;;;5012192;28;20483;-71
2021/07/18 03:27:51;;;;;;;22.33;14.00;;;15.50;99.90;;;;;;5012808;28;20495;-71
2021/07/18 03:30:19;;;;;;;18.38;13.00;;;15.50;99.90;;;;;;5012363;28;20022;-71
2021/07/18 03:32:45;;;;;;;23.20;11.63;;;15.50;99.90;;;;;;5012622;28;20153;-70
2021/07/18 03:35:12;;;;;;;16.02;11.82;;;15.50;99.90;;;;;;5011810;28;20137;-71
2021/07/18 03:37:39;;;;;;;18.70;10.52;;;15.50;99.90;;;;;;5012313;28;20078;-71
2021/07/18 03:40:11;;;;;;;18.52;10.80;;;15.50;99.90;;;;;;5011825;28;20025;-71
2021/07/18 03:42:37;;;;;;;13.98;10.93;;;15.50;99.90;;;;;;5012430;28;20022;-71
2021/07/18 03:45:05;;;;;;;15.63;10.63;;;15.50;99.90;;;;;;5010179;28;20073;-70
2021/07/18 03:47:30;;;;;;;15.50;11.07;;;15.50;99.90;;;;;;5012436;28;20100;-70
2021/07/18 03:49:56;;;;;;;12.65;10.02;;;15.50;99.90;;;;;;5012021;28;20129;-70
2021/07/18 03:52:22;;;;;;;15.88;10.05;;;15.50;99.90;;;;;;5012259;28;20032;-70
2021/07/18 03:54:47;;;;;;;18.23;11.25;;;15.50;99.90;;;;;;5011512;28;20022;-70
2021/07/18 03:57:13;;;;;;;14.10;11.20;;;15.50;99.90;;;;;;5012030;28;20112;-70
2021/07/18 03:59:38;;;;;;;16.42;10.65;;;15.40;99.90;;;;;;5012069;28;20025;-70
2021/07/18 04:02:04;;;;;;;12.10;10.82;;;15.40;99.90;;;;;;5011878;28;20352;-71
2021/07/18 04:04:33;;;;;;;14.75;10.23;;;15.40;99.90;;;;;;5011419;28;20104;-71
2021/07/18 04:07:00;;;;;;;23.20;11.65;;;15.40;99.90;;;;;;5011959;28;20026;-71
2021/07/18 04:09:25;;;;;;;15.75;11.00;;;15.40;99.90;;;;;;5012033;28;20081;-71
2021/07/18 04:11:51;;;;;;;13.35;10.93;;;15.40;99.90;;;;;;5012028;28;20026;-71
2021/07/18 04:14:16;;;;;;;17.73;11.88;;;15.30;99.90;;;;;;5011173;28;20480;-71
2021/07/18 04:16:42;;;;;;;16.27;11.68;;;15.30;99.90;;;;;;5011408;28;20022;-71
2021/07/18 04:19:08;;;;;;;15.43;10.80;;;15.30;99.90;;;;;;5012001;28;20084;-71
2021/07/18 04:21:34;;;;;;;18.30;11.82;;;15.30;99.90;;;;;;4994315;28;20022;-71
2021/07/18 04:24:00;;;;;;;18.60;12.55;;;15.40;99.90;;;;;;5011762;28;20071;-71
2021/07/18 04:26:25;;;;;;;22.50;12.15;;;15.50;99.90;;;;;;4992383;28;20510;-71
2021/07/18 04:28:51;;;;;;;25.83;12.80;;;15.50;99.90;;;;;;5011735;28;20105;-71
2021/07/18 04:31:17;;;;;;;22.38;12.65;;;15.40;99.90;;;;;;5011798;28;20026;-71
2021/07/18 04:33:43;;;;;;;18.75;13.40;;;15.30;99.90;;;;;;5011542;28;20022;-71
2021/07/18 04:36:10;;;;;;;21.95;13.30;;;15.30;99.90;;;;;;5009902;28;20357;-71
2021/07/18 04:38:36;;;;;;;24.35;14.52;;;15.30;99.90;;;;;;5011597;28;20548;-71
2021/07/18 04:41:01;;;;;;;19.00;13.68;;;15.30;99.90;;;;;;5011228;28;20109;-71
2021/07/18 04:43:27;;;;;;;20.45;13.98;;;15.40;99.90;;;;;;5011616;28;20049;-71
2021/07/18 04:45:52;;;;;;;20.35;13.15;;;15.40;99.90;;;;;;5010857;28;20030;-71
2021/07/18 04:48:18;;;;;;;17.65;13.55;;;15.40;99.90;;;;;;5011378;28;20045;-71
2021/07/18 04:50:45;;;;;;;23.75;15.68;;;15.40;99.90;;;;;;5013446;28;20022;-71
2021/07/18 04:53:11;;;;;;;25.00;13.75;;;15.40;99.90;;;;;;5015521;28;20056;-71
2021/07/18 04:55:37;;;;;;;29.20;15.27;;;15.50;99.90;;;;;;5014557;28;20496;-71
2021/07/18 04:58:03;;;;;;;19.13;14.88;;;15.50;99.90;;;;;;5015362;28;20033;-71
2021/07/18 05:00:28;;;;;;;21.05;13.75;;;15.50;99.90;;;;;;5015546;28;20104;-71
2021/07/18 05:02:54;;;;;;;28.95;15.88;;;15.60;99.90;;;;;;5015125;28;20101;-71
2021/07/18 05:05:20;;;;;;;21.83;15.35;;;15.60;99.90;;;;;;5014473;28;20022;-71
2021/07/18 05:07:50;;;;;;;22.75;16.10;;;15.70;99.90;;;;;;4997680;28;20060;-71
2021/07/18 05:10:18;;;;;;;27.00;15.60;;;15.60;99.90;;;;;;5014826;28;20518;-71
2021/07/18 05:12:48;;;;;;;24.95;15.68;;;15.70;99.90;;;;;;5015139;28;20126;-71
2021/07/18 05:15:14;;;;;;;25.55;16.00;;;15.70;99.90;;;;;;4996560;28;20557;-70
2021/07/18 05:17:40;;;;;;;17.85;15.02;;;15.70;99.90;;;;;;5015004;28;20038;-70
2021/07/18 05:20:08;;;;;;;24.77;14.88;;;15.90;99.90;;;;;;5015141;28;20079;-70
2021/07/18 05:22:33;;;;;;;17.75;13.55;;;16.00;99.90;;;;;;5015089;28;20026;-71
2021/07/18 05:25:00;;;;;;;24.90;14.95;;;16.10;99.90;;;;;;5013861;28;20045;-70
2021/07/18 05:27:26;;;;;;;16.38;13.18;;;16.20;99.90;;;;;;5014879;28;20115;-72
2021/07/18 05:29:52;;;;;;;18.65;13.90;;;16.30;99.90;;;;;;5015634;28;20434;-70
2021/07/18 05:32:17;;;;;;;20.92;14.25;;;16.30;99.90;;;;;;5015038;28;20500;-69
2021/07/18 05:34:43;;;;;;;16.15;13.23;;;16.40;99.90;;;;;;5014053;28;20026;-70
2021/07/18 05:37:09;;;;;;;18.33;13.50;;;16.40;99.90;;;;;;4996977;28;20026;-70
2021/07/18 05:39:34;;;;;;;18.80;13.05;;;16.50;99.90;;;;;;5014812;28;20026;-71
2021/07/18 05:42:00;;;;;;;14.13;11.45;;;16.50;99.90;;;;;;5005380;28;20037;-69
2021/07/18 05:44:26;;;;;;;16.83;11.95;;;16.50;99.90;;;;;;4989957;28;20034;-71
2021/07/18 05:46:52;;;;;;;16.83;12.00;;;16.50;99.90;;;;;;4979120;28;20133;-71
2021/07/18 05:49:18;;;;;;;15.88;12.20;;;16.60;99.90;;;;;;4986784;28;20050;-70
2021/07/18 05:51:44;;;;;;;14.93;11.60;;;16.70;99.90;;;;;;4994840;28;20511;-70
2021/07/18 05:54:10;;;;;;;17.90;10.43;;;16.80;99.90;;;;;;4994332;28;20031;-69
2021/07/18 05:56:36;;;;;;;14.73;9.65;;;16.80;99.90;;;;;;4976573;28;20366;-69
2021/07/18 05:59:02;;;;;;;17.98;9.73;;;16.70;99.90;;;;;;4993982;28;20035;-69
2021/07/18 06:01:27;;;;;;;17.67;9.90;;;16.80;99.90;;;;;;5004532;28;20054;-70
2021/07/18 06:03:53;;;;;;;13.90;10.15;;;17.00;99.90;;;;;;5009622;28;20451;-71
2021/07/18 06:06:19;;;;;;;13.13;9.98;;;17.10;99.90;;;;;;4958936;28;20034;-71
2021/07/18 06:08:44;;;;;;;16.70;11.20;;;17.20;99.90;;;;;;4957447;28;20125;-71
2021/07/18 06:11:10;;;;;;;13.68;8.30;;;17.10;99.90;;;;;;4974669;28;20033;-71
2021/07/18 06:13:35;;;;;;;11.95;7.45;;;17.20;99.90;;;;;;4974272;28;20065;-70
2021/07/18 06:16:01;;;;;;;12.75;8.75;;;17.30;99.90;;;;;;4971174;28;20497;-70
2021/07/18 06:18:27;;;;;;;11.88;6.68;;;17.30;99.90;;;;;;4991415;28;20032;-70
2021/07/18 06:20:52;;;;;;;12.05;6.75;;;17.30;99.90;;;;;;4993775;28;20073;-69
2021/07/18 06:23:18;;;;;;;8.40;5.90;;;17.40;99.90;;;;;;4994060;28;20488;-70
2021/07/18 06:25:44;;;;;;;7.32;4.22;;;17.50;99.90;;;;;;4993315;28;20030;-72
2021/07/18 06:28:10;;;;;;;7.28;4.53;;;17.60;99.90;;;;;;4993364;28;20030;-72
2021/07/18 06:30:35;;;;;;;6.32;4.00;;;17.80;99.90;;;;;;4998140;28;20087;-70
2021/07/18 06:33:01;;;;;;;7.45;3.60;;;17.80;99.90;;;;;;5013639;28;20057;-70
2021/07/18 06:35:28;;;;;;;6.25;3.90;;;18.00;99.90;;;;;;5011630;28;20034;-71
2021/07/18 06:37:53;;;;;;;4.03;3.58;;;18.00;99.90;;;;;;5001920;28;20026;-71
2021/07/18 06:40:19;;;;;;;6.00;3.30;;;18.10;99.90;;;;;;4993894;28;20022;-71
2021/07/18 06:42:45;;;;;;;8.90;4.07;;;18.10;99.90;;;;;;4993487;28;20030;-69
2021/07/18 06:45:11;;;;;;;3.80;3.45;;;18.40;99.90;;;;;;5005499;28;20037;-69
2021/07/18 06:47:37;;;;;;;6.57;3.28;;;18.60;99.90;;;;;;5012795;28;20395;-69
2021/07/18 06:50:03;;;;;;;4.40;3.20;;;18.90;99.90;;;;;;4990399;28;20027;-69
2021/07/18 06:52:29;;;;;;;4.07;3.13;;;19.00;99.90;;;;;;4974261;28;20026;-69
2021/07/18 06:54:54;;;;;;;5.30;2.90;;;19.10;99.90;;;;;;4973450;28;20031;-69
2021/07/18 06:57:20;;;;;;;5.00;2.92;;;19.20;99.90;;;;;;4956383;28;20041;-70
2021/07/18 06:59:47;;;;;;;5.90;3.00;;;19.30;99.90;;;;;;4973847;28;20030;-69
2021/07/18 07:02:13;;;;;;;5.40;2.95;;;19.40;99.90;;;;;;4973605;28;20023;-70
2021/07/18 07:04:39;;;;;;;5.93;2.80;;;19.30;99.90;;;;;;4973223;28;20019;-69
2021/07/18 07:07:05;;;;;;;6.32;3.20;;;19.40;99.90;;;;;;4973904;28;20453;-71
2021/07/18 07:09:31;;;;;;;4.35;2.65;;;19.40;99.90;;;;;;4983008;28;20030;-70
2021/07/18 07:11:56;;;;;;;4.93;2.75;;;19.50;99.90;;;;;;4993294;28;20025;-70
2021/07/18 07:14:22;;;;;;;5.00;2.63;;;19.50;99.90;;;;;;4998175;28;20101;-70
2021/07/18 07:16:47;;;;;;;8.15;3.00;;;19.60;99.90;;;;;;5009140;28;20026;-70
2021/07/18 07:19:13;;;;;;;5.40;2.28;;;19.80;99.90;;;;;;4992914;28;20500;-71
2021/07/18 07:21:39;;;;;;;5.72;2.65;;;19.90;99.90;;;;;;4992786;28;20093;-69
2021/07/18 07:24:04;;;;;;;5.82;2.53;;;20.00;99.90;;;;;;4992704;28;20053;-69
2021/07/18 07:26:30;;;;;;;9.95;3.30;;;20.00;99.90;;;;;;4991811;28;20038;-69
2021/07/18 07:28:56;;;;;;;3.65;2.50;;;20.00;99.90;;;;;;4992829;28;20034;-69
2021/07/18 07:31:22;;;;;;;6.10;2.35;;;20.10;99.90;;;;;;4992448;28;20030;-69
2021/07/18 07:33:48;;;;;;;3.22;2.40;;;20.20;99.90;;;;;;4992695;28;20034;-69
2021/07/18 07:36:16;;;;;;;4.03;2.30;;;20.30;99.90;;;;;;4991643;28;20033;-69
2021/07/18 07:38:42;;;;;;;8.38;2.30;;;20.30;99.90;;;;;;4992573;28;20034;-69
2021/07/18 07:41:08;;;;;;;3.88;2.30;;;20.30;99.90;;;;;;4992497;28;20023;-69
2021/07/18 07:43:34;;;;;;;3.08;2.55;;;20.40;99.90;;;;;;4992422;28;20473;-69
2021/07/18 07:46:00;;;;;;;3.22;2.40;;;20.50;99.90;;;;;;5010996;28;20061;-69
2021/07/18 07:48:26;;;;;;;3.65;2.35;;;20.60;99.90;;;;;;5011789;28;20540;-69
2021/07/18 07:50:52;;;;;;;5.95;2.58;;;20.80;99.90;;;;;;5012142;28;20030;-69
2021/07/18 07:53:18;;;;;;;4.43;2.20;;;20.90;99.90;;;;;;5012019;28;20428;-69
2021/07/18 07:55:44;;;;;;;10.05;2.40;;;21.00;99.90;;;;;;5011059;28;20029;-69
2021/07/18 07:58:10;;;;;;;5.28;2.10;;;21.10;99.90;;;;;;5011859;28;20519;-69
2021/07/18 08:00:37;;;;;;;5.43;1.90;;;21.10;99.90;;;;;;5011610;28;20123;-69
2021/07/18 08:03:03;;;;;;;7.35;2.38;;;21.00;99.90;;;;;;5011499;28;20503;-69
2021/07/18 08:05:29;;;;;;;3.85;2.13;;;21.00;99.90;;;;;;5010813;28;20081;-69
2021/07/18 08:07:54;;;;;;;7.95;2.00;;;20.90;99.90;;;;;;5011921;28;20030;-69
2021/07/18 08:10:22;;;;;;;6.43;2.15;;;20.90;99.90;;;;;;5011432;28;20030;-69
2021/07/18 08:12:48;;;;;;;3.20;1.70;;;20.90;99.90;;;;;;4994216;28;20084;-69
2021/07/18 08:15:15;;;;;;;5.88;1.88;;;21.20;99.90;;;;;;5011007;28;20034;-69
2021/07/18 08:17:42;;;;;;;7.00;2.30;;;21.40;99.90;;;;;;5011612;28;20057;-68
2021/07/18 08:20:14;;;;;;;8.85;1.80;;;21.50;99.90;;;;;;5012332;28;20476;-68
2021/07/18 08:22:39;;;;;;;6.90;2.20;;;21.80;99.90;;;;;;5011925;28;20029;-70
2021/07/18 08:25:06;;;;;;;3.60;2.20;;;22.10;99.90;;;;;;5010624;28;20022;-71
2021/07/18 08:27:40;;;;;;;4.43;2.40;;;22.00;99.90;;;;;;5010696;28;20112;-70
2021/07/18 08:30:07;;;;;;;2.22;1.77;;;21.90;99.90;;;;;;5011611;28;20156;-70
2021/07/18 08:32:33;;;;;;;6.30;2.05;;;22.00;99.90;;;;;;4993779;28;20088;-70
2021/07/18 08:34:59;;;;;;;4.80;2.50;;;22.20;99.90;;;;;;5010709;28;20034;-70
2021/07/18 08:37:24;;;;;;;2.95;1.85;;;22.50;99.90;;;;;;5004350;28;20061;-70
2021/07/18 08:39:51;;;;;;;6.80;2.42;;;22.90;99.90;;;;;;4992065;28;20085;-70
2021/07/18 08:42:17;;;;;;;4.40;1.85;;;23.00;99.90;;;;;;4974419;28;20469;-69
2021/07/18 08:44:43;;;;;;;6.15;2.10;;;22.80;99.90;;;;;;4991119;28;20022;-70
2021/07/18 08:47:10;;;;;;;4.28;1.83;;;22.50;99.90;;;;;;5035856;23;20797;-69
2021/07/18 08:49:37;;;;;;;4.40;1.85;;;22.60;99.90;;;;;;4993364;28;20053;-69
2021/07/18 08:52:03;;;;;;;2.67;1.98;;;23.00;99.90;;;;;;5011534;28;20022;-69
2021/07/18 08:54:33;;;;;;;6.30;1.77;;;24.10;99.90;;;;;;5010750;28;20396;-69
2021/07/18 08:57:00;;;;;;;4.47;1.73;;;24.40;99.90;;;;;;5005313;28;20027;-69
2021/07/18 08:59:27;;;;;;;2.75;1.65;;;24.90;99.90;;;;;;4992017;28;20035;-69
2021/07/18 09:01:53;;;;;;;7.47;1.65;;;25.40;99.90;;;;;;4991986;28;20073;-69
2021/07/18 09:04:19;;;;;;;6.63;1.83;;;25.60;99.90;;;;;;4991527;28;20424;-69
2021/07/18 09:06:50;;;;;;;3.92;2.03;;;24.50;99.90;;;;;;4992535;28;20026;-68
2021/07/18 09:09:20;;;;;;;6.45;1.95;;;24.00;99.90;;;;;;4992364;28;20040;-70
2021/07/18 09:12:02;;;;;;;4.82;1.95;;;24.20;99.90;;;;;;4992404;28;20034;-70
2021/07/18 09:14:32;;;;;;;;;;;24.90;99.90;;;;;;4991625;28;20034;-69
2021/07/18 09:16:58;;;;;;;8.63;2.00;;;26.30;99.90;;;;;;4991600;28;19917;-72
2021/07/18 09:19:32;;;;;;;3.47;2.03;;;26.60;99.90;;;;;;4973938;28;20034;-68
2021/07/18 09:22:04;;;;;;;2.75;1.83;;;26.10;99.90;;;;;;4991736;28;20030;-69
2021/07/18 09:24:35;;;;;;;4.65;1.92;;;24.70;99.90;;;;;;4991342;28;20105;-68
2021/07/18 09:27:15;;;;;;;2.85;1.83;;;24.30;99.90;;;;;;4996182;28;20467;-70
2021/07/18 09:29:43;;;;;;;7.40;2.03;;;24.70;99.90;;;;;;4990574;28;20125;-68
2021/07/18 09:32:14;;;;;;;4.05;2.05;;;26.30;99.90;;;;;;4989780;28;20054;-68
2021/07/18 09:34:42;;;;;;;3.55;1.83;;;26.30;99.90;;;;;;4987126;28;20021;-68
2021/07/18 09:37:28;;;;;;;3.42;1.58;;;26.40;99.90;;;;;;4992140;28;20464;-68
2021/07/18 09:39:59;;;;;;;4.82;1.98;;;27.20;99.90;;;;;;4992421;28;20026;-69
2021/07/18 09:43:00;;;;;;;4.88;1.75;;;27.70;99.90;;;;;;4995058;28;20457;-69
2021/07/18 09:45:29;;;;;;;2.78;1.73;;;27.10;99.90;;;;;;4934116;29;20429;-69
2021/07/18 09:47:58;;;;;;;4.60;2.05;;;27.90;99.90;;;;;;4968032;28;20093;-69
2021/07/18 09:50:33;;;;;;;5.05;1.80;;;28.40;99.90;;;;;;4958204;28;20031;-69
2021/07/18 09:53:11;;;;;;;2.95;1.63;;;27.70;99.90;;;;;;4975171;28;20105;-69
2021/07/18 09:55:54;;;;;;;5.97;2.20;;;28.10;99.90;;;;;;4974969;28;20489;-69
2021/07/18 09:58:23;;;;;;;4.43;1.88;;;27.10;99.90;;;;;;4975597;28;20037;-68
2021/07/18 10:00:49;;;;;;;3.22;1.83;;;27.50;99.90;;;;;;4975487;28;20389;-68
2021/07/18 10:03:22;;;;;;;5.65;2.55;;;27.80;99.90;;;;;;4975535;28;20023;-69
2021/07/18 10:06:03;;;;;;;3.40;2.08;;;28.90;99.90;;;;;;4974975;28;20444;-69
2021/07/18 10:08:30;;;;;;;4.10;1.77;;;27.80;99.90;;;;;;4975522;28;20073;-69
2021/07/18 10:10:56;;;;;;;4.50;2.08;;;27.60;99.90;;;;;;4975415;28;20394;-69
2021/07/18 10:13:22;;;;;;;2.15;1.90;;;29.00;99.20;;;;;;4976570;28;20030;-69
2021/07/18 10:15:49;;;;;;;6.03;2.00;;;28.70;99.90;;;;;;4994075;28;20031;-70
2021/07/18 10:18:14;;;;;;;4.28;2.05;;;27.00;99.90;;;;;;4994721;28;20034;-69
2021/07/18 10:20:41;;;;;;;3.83;1.98;;;26.50;99.90;;;;;;4977308;28;20053;-69
2021/07/18 10:23:08;;;;;;;8.95;2.25;;;26.30;99.90;;;;;;4994661;28;20160;-69
2021/07/18 10:25:34;;;;;;;4.50;1.80;;;26.60;99.90;;;;;;4993998;28;20044;-69
2021/07/18 10:28:01;;;;;;;6.40;1.90;;;27.30;99.90;;;;;;4994744;28;20038;-69
2021/07/18 10:30:30;;;;;;;2.85;1.90;;;27.40;99.90;;;;;;4994313;28;20396;-69
2021/07/18 10:32:57;;;;;;;5.93;2.15;;;27.70;99.90;;;;;;4994781;28;20384;-69
2021/07/18 10:35:23;;;;;;;4.57;2.50;;;27.40;99.90;;;;;;4993904;28;20109;-69
2021/07/18 10:37:50;;;;;;;6.43;1.90;;;27.30;99.90;;;;;;4994229;28;20106;-69
2021/07/18 10:40:21;;;;;;;6.63;2.00;;;26.70;99.90;;;;;;4993595;28;20488;-69
2021/07/18 10:42:48;;;;;;;6.40;2.15;;;26.50;99.90;;;;;;4994705;28;20034;-69
2021/07/18 10:45:18;;;;;;;5.90;1.77;;;26.80;99.90;;;;;;4993691;28;20385;-69
2021/07/18 10:48:09;;;;;;;6.35;2.15;;;27.00;99.90;;;;;;4993975;28;20051;-69
2021/07/18 10:50:44;;;;;;;7.38;2.40;;;27.20;99.90;;;;;;4967728;28;20058;-69
2021/07/18 10:53:22;;;;;;;5.07;2.20;;;27.60;99.90;;;;;;4974507;28;20057;-69
2021/07/18 10:55:50;;;;;;;5.53;1.85;;;28.20;99.90;;;;;;4974383;28;20056;-68
2021/07/18 10:58:37;;;;;;;3.75;1.90;;;28.20;99.90;;;;;;4974269;28;20120;-68
2021/07/18 11:01:03;;;;;;;5.60;1.73;;;28.40;99.20;;;;;;4990996;28;20480;-69
2021/07/18 11:03:40;;;;;;;5.68;1.92;;;28.20;98.00;;;;;;4994080;28;20153;-69
2021/07/18 11:06:21;;;;;;;6.05;1.65;;;28.30;98.90;;;;;;4993057;28;20022;-69
2021/07/18 11:09:05;;;;;;;5.97;2.25;;;29.30;97.50;;;;;;4993264;28;20890;-69
2021/07/18 11:11:47;;;;;;;6.60;2.10;;;29.60;96.90;;;;;;4994050;28;20026;-69
2021/07/18 11:14:28;;;;;;;;;;;29.70;97.70;;;;;;4990560;28;20536;-69
2021/07/18 11:16:58;;;;;;;4.07;2.10;;;30.20;95.60;;;;;;4997308;28;19968;-69
2021/07/18 11:19:39;;;;;;;3.08;1.90;;;29.70;96.20;;;;;;4994622;28;20026;-70
2021/07/18 11:22:07;;;;;;;2.92;2.47;;;29.30;95.90;;;;;;4996331;28;20030;-70
2021/07/18 11:24:53;;;;;;;3.22;2.05;;;29.20;97.20;;;;;;4993842;28;20050;-68
2021/07/18 11:27:34;;;;;;;1.80;1.65;;;29.20;94.50;;;;;;4993410;28;20037;-69
2021/07/18 11:30:03;;;;;;;5.03;1.80;;;29.30;94.40;;;;;;4992521;28;20034;-69
2021/07/18 11:32:31;;;;;;;5.75;2.00;;;29.40;95.30;;;;;;4992523;28;20026;-69
2021/07/18 11:34:58;;;;;;;4.30;2.03;;;29.70;94.40;;;;;;4991760;28;20247;-69
2021/07/18 11:37:31;;;;;;;3.70;2.05;;;29.50;94.60;;;;;;4992082;28;20028;-68
2021/07/18 11:40:01;;;;;;;4.38;1.90;;;29.00;94.70;;;;;;4991569;28;20065;-68
2021/07/18 11:42:27;;;;;;;4.35;1.83;;;28.60;95.90;;;;;;4992888;28;20033;-69
2021/07/18 11:44:53;;;;;;;6.18;2.08;;;29.00;94.70;;;;;;4991722;28;20034;-69
2021/07/18 11:47:23;;;;;;;3.33;2.40;;;28.90;93.70;;;;;;4991692;28;20034;-71
2021/07/18 11:49:51;;;;;;;5.55;1.83;;;29.30;96.60;;;;;;4992571;28;20384;-70
2021/07/18 11:52:20;;;;;;;2.45;2.25;;;29.60;95.00;;;;;;4992564;28;20026;-71
2021/07/18 11:54:46;;;;;;;4.93;2.25;;;29.30;94.90;;;;;;4991663;28;20025;-70
2021/07/18 11:57:17;;;;;;;4.78;2.28;;;29.40;95.20;;;;;;4992207;28;20030;-69
2021/07/18 11:59:44;;;;;;;2.20;2.00;;;29.20;94.10;;;;;;4991652;28;20019;-69
2021/07/18 12:02:12;;;;;;;5.13;1.95;;;29.40;94.10;;;;;;4992082;28;20014;-66
2021/07/18 12:04:40;;;;;;;2.47;2.22;;;28.70;94.90;;;;;;4991525;28;20030;-65
2021/07/18 12:07:08;;;;;;;5.20;1.80;;;29.50;94.10;;;;;;4994817;28;20030;-67
2021/07/18 12:09:39;;;;;;;3.75;1.98;;;29.60;93.30;;;;;;5011741;28;20007;-67
2021/07/18 12:12:09;;;;;;;8.70;2.15;;;30.00;93.60;;;;;;4992610;28;20096;-67
2021/07/18 12:14:35;;;;;;;4.53;2.13;;;29.90;94.40;;;;;;4991556;28;20040;-69
2021/07/18 12:17:04;;;;;;;4.45;2.30;;;30.00;94.00;;;;;;4992078;28;20489;-69
2021/07/18 12:19:32;;;;;;;6.07;2.25;;;29.60;94.00;;;;;;4991629;28;20030;-68
2021/07/18 12:22:01;;;;;;;2.70;2.15;;;30.30;92.50;;;;;;4991790;28;20042;-67
2021/07/18 12:24:32;;;;;;;2.33;1.70;;;29.80;93.10;;;;;;4990996;28;20080;-69
2021/07/18 12:27:15;;;;;;;4.72;2.20;;;29.90;93.80;;;;;;4991682;28;20023;-70
2021/07/18 12:29:52;;;;;;;3.40;2.17;;;29.80;92.70;;;;;;4991702;28;20396;-69
2021/07/18 12:32:20;;;;;;;5.60;2.22;;;29.70;92.90;;;;;;4991881;28;20019;-69
2021/07/18 12:34:49;;;;;;;5.15;2.15;;;29.60;93.40;;;;;;4991185;28;20030;-68
2021/07/18 12:37:19;;;;;;;3.28;1.95;;;30.10;93.70;;;;;;4991964;28;20085;-68
2021/07/18 12:39:56;;;;;;;3.67;1.90;;;29.70;92.80;;;;;;4990479;28;20096;-68